sensor_id;sensor_type;location;lat;lon;timestamp;P1;durP1;ratioP1;P2;durP2;ratioP2
36351;SDS011;22382;44.768;17.206;2022-12-08T00:00:09;46.20;;;23.67;;
36351;SDS011;22382;44.768;17.206;2022-12-08T00:02:36;39.10;;;21.13;;
36351;SDS011;22382;44.768;17.206;2022-12-08T00:05:04;40.22;;;21.48;;
36351;SDS011;22382;44.768;17.206;2022-12-08T00:07:50;41.45;;;21.27;;
36351;SDS011;22382;44.768;17.206;2022-12-08T00:10:36;37.28;;;20.35;;
36351;SDS011;22382;44.768;17.206;2022-12-08T00:13:15;43.95;;;22.30;;
36351;SDS011;22382;44.768;17.206;2022-12-08T00:15:42;40.75;;;20.80;;
36351;SDS011;22382;44.768;17.206;2022-12-08T00:18:09;42.28;;;21.52;;
36351;SDS011;22382;44.768;17.206;2022-12-08T00:20:36;51.10;;;25.95;;
36351;SDS011;22382;44.768;17.206;2022-12-08T00:23:03;51.53;;;25.95;;
36351;SDS011;22382;44.768;17.206;2022-12-08T00:25:30;53.53;;;27.25;;
36351;SDS011;22382;44.768;17.206;2022-12-08T00:28:01;63.08;;;30.25;;
36351;SDS011;22382;44.768;17.206;2022-12-08T00:30:28;68.47;;;32.78;;
36351;SDS011;22382;44.768;17.206;2022-12-08T00:32:55;73.85;;;34.30;;
36351;SDS011;22382;44.768;17.206;2022-12-08T00:35:22;65.65;;;30.65;;
36351;SDS011;22382;44.768;17.206;2022-12-08T00:37:49;62.55;;;29.70;;
36351;SDS011;22382;44.768;17.206;2022-12-08T00:40:21;58.35;;;28.15;;
36351;SDS011;22382;44.768;17.206;2022-12-08T00:42:48;57.05;;;28.73;;
36351;SDS011;22382;44.768;17.206;2022-12-08T00:45:15;55.45;;;27.20;;
36351;SDS011;22382;44.768;17.206;2022-12-08T00:47:42;59.13;;;28.40;;
36351;SDS011;22382;44.768;17.206;2022-12-08T00:50:09;49.80;;;26.42;;
36351;SDS011;22382;44.768;17.206;2022-12-08T00:52:36;56.78;;;26.85;;
36351;SDS011;22382;44.768;17.206;2022-12-08T00:55:03;60.60;;;27.90;;
36351;SDS011;22382;44.768;17.206;2022-12-08T00:57:31;54.88;;;26.58;;
36351;SDS011;22382;44.768;17.206;2022-12-08T00:59:58;53.30;;;27.05;;
36351;SDS011;22382;44.768;17.206;2022-12-08T01:02:25;51.78;;;26.20;;
36351;SDS011;22382;44.768;17.206;2022-12-08T01:04:52;50.55;;;25.55;;
36351;SDS011;22382;44.768;17.206;2022-12-08T01:07:19;55.72;;;26.92;;
36351;SDS011;22382;44.768;17.206;2022-12-08T01:09:46;52.05;;;25.42;;
36351;SDS011;22382;44.768;17.206;2022-12-08T01:12:13;54.20;;;27.10;;
36351;SDS011;22382;44.768;17.206;2022-12-08T01:14:40;55.90;;;28.08;;
36351;SDS011;22382;44.768;17.206;2022-12-08T01:17:07;56.15;;;25.38;;
36351;SDS011;22382;44.768;17.206;2022-12-08T01:19:34;57.97;;;26.75;;
36351;SDS011;22382;44.768;17.206;2022-12-08T01:22:02;56.97;;;27.08;;
36351;SDS011;22382;44.768;17.206;2022-12-08T01:24:29;57.10;;;27.83;;
36351;SDS011;22382;44.768;17.206;2022-12-08T01:26:56;61.50;;;27.08;;
36351;SDS011;22382;44.768;17.206;2022-12-08T01:29:23;64.03;;;29.10;;
36351;SDS011;22382;44.768;17.206;2022-12-08T01:31:50;55.20;;;27.13;;
36351;SDS011;22382;44.768;17.206;2022-12-08T01:34:17;61.08;;;30.52;;
36351;SDS011;22382;44.768;17.206;2022-12-08T01:36:44;65.43;;;30.77;;
36351;SDS011;22382;44.768;17.206;2022-12-08T01:39:15;65.35;;;30.63;;
36351;SDS011;22382;44.768;17.206;2022-12-08T01:41:44;64.63;;;29.92;;
36351;SDS011;22382;44.768;17.206;2022-12-08T01:46:40;64.35;;;29.30;;
36351;SDS011;22382;44.768;17.206;2022-12-08T01:54:33;65.68;;;31.25;;
36351;SDS011;22382;44.768;17.206;2022-12-08T01:57:09;69.15;;;31.58;;
36351;SDS011;22382;44.768;17.206;2022-12-08T01:59:45;72.40;;;33.45;;
36351;SDS011;22382;44.768;17.206;2022-12-08T02:02:18;75.75;;;32.13;;
36351;SDS011;22382;44.768;17.206;2022-12-08T02:04:45;78.32;;;33.65;;
36351;SDS011;22382;44.768;17.206;2022-12-08T02:07:12;80.53;;;34.63;;
36351;SDS011;22382;44.768;17.206;2022-12-08T02:09:41;85.85;;;36.33;;
36351;SDS011;22382;44.768;17.206;2022-12-08T02:12:09;74.68;;;33.08;;
36351;SDS011;22382;44.768;17.206;2022-12-08T02:14:37;81.05;;;33.38;;
36351;SDS011;22382;44.768;17.206;2022-12-08T02:23:10;83.88;;;34.10;;
36351;SDS011;22382;44.768;17.206;2022-12-08T02:39:41;92.18;;;36.70;;
36351;SDS011;22382;44.768;17.206;2022-12-08T02:48:11;98.82;;;40.30;;
36351;SDS011;22382;44.768;17.206;2022-12-08T02:50:38;117.28;;;44.05;;
36351;SDS011;22382;44.768;17.206;2022-12-08T02:53:05;103.90;;;42.80;;
36351;SDS011;22382;44.768;17.206;2022-12-08T02:59:02;95.93;;;40.38;;
36351;SDS011;22382;44.768;17.206;2022-12-08T03:12:21;83.07;;;37.05;;
36351;SDS011;22382;44.768;17.206;2022-12-08T03:15:11;62.25;;;28.00;;
36351;SDS011;22382;44.768;17.206;2022-12-08T03:17:43;81.70;;;36.27;;
36351;SDS011;22382;44.768;17.206;2022-12-08T03:20:15;77.43;;;34.67;;
36351;SDS011;22382;44.768;17.206;2022-12-08T03:22:46;80.03;;;35.63;;
36351;SDS011;22382;44.768;17.206;2022-12-08T03:25:16;72.47;;;33.25;;
36351;SDS011;22382;44.768;17.206;2022-12-08T03:27:49;72.45;;;33.90;;
36351;SDS011;22382;44.768;17.206;2022-12-08T03:30:17;69.97;;;33.55;;
36351;SDS011;22382;44.768;17.206;2022-12-08T03:32:59;86.15;;;38.88;;
36351;SDS011;22382;44.768;17.206;2022-12-08T03:35:31;74.32;;;33.35;;
36351;SDS011;22382;44.768;17.206;2022-12-08T03:38:04;66.20;;;31.42;;
36351;SDS011;22382;44.768;17.206;2022-12-08T03:40:33;71.55;;;33.40;;
36351;SDS011;22382;44.768;17.206;2022-12-08T03:43:00;68.05;;;32.15;;
36351;SDS011;22382;44.768;17.206;2022-12-08T03:45:27;81.35;;;34.65;;
36351;SDS011;22382;44.768;17.206;2022-12-08T03:47:54;70.40;;;34.70;;
36351;SDS011;22382;44.768;17.206;2022-12-08T03:50:22;70.63;;;33.95;;
36351;SDS011;22382;44.768;17.206;2022-12-08T03:52:49;67.88;;;34.20;;
36351;SDS011;22382;44.768;17.206;2022-12-08T03:55:16;63.53;;;32.95;;
36351;SDS011;22382;44.768;17.206;2022-12-08T03:57:43;63.92;;;31.70;;
36351;SDS011;22382;44.768;17.206;2022-12-08T04:00:12;61.60;;;30.48;;
36351;SDS011;22382;44.768;17.206;2022-12-08T04:02:41;61.03;;;29.55;;
36351;SDS011;22382;44.768;17.206;2022-12-08T04:05:08;65.60;;;31.15;;
36351;SDS011;22382;44.768;17.206;2022-12-08T04:07:35;59.65;;;30.25;;
36351;SDS011;22382;44.768;17.206;2022-12-08T04:10:02;60.28;;;30.58;;
36351;SDS011;22382;44.768;17.206;2022-12-08T04:12:30;58.33;;;28.75;;
36351;SDS011;22382;44.768;17.206;2022-12-08T04:14:57;60.30;;;28.90;;
36351;SDS011;22382;44.768;17.206;2022-12-08T04:17:24;59.65;;;29.55;;
36351;SDS011;22382;44.768;17.206;2022-12-08T04:19:51;55.45;;;28.95;;
36351;SDS011;22382;44.768;17.206;2022-12-08T04:22:18;48.90;;;26.63;;
36351;SDS011;22382;44.768;17.206;2022-12-08T04:24:45;57.80;;;27.67;;
36351;SDS011;22382;44.768;17.206;2022-12-08T04:27:12;55.45;;;27.00;;
36351;SDS011;22382;44.768;17.206;2022-12-08T04:29:39;56.65;;;28.75;;
36351;SDS011;22382;44.768;17.206;2022-12-08T04:32:06;55.38;;;27.70;;
36351;SDS011;22382;44.768;17.206;2022-12-08T04:34:33;54.70;;;27.08;;
36351;SDS011;22382;44.768;17.206;2022-12-08T04:37:00;51.55;;;26.00;;
36351;SDS011;22382;44.768;17.206;2022-12-08T04:39:27;49.95;;;25.20;;
36351;SDS011;22382;44.768;17.206;2022-12-08T04:41:54;49.35;;;25.08;;
36351;SDS011;22382;44.768;17.206;2022-12-08T04:44:21;47.47;;;24.38;;
36351;SDS011;22382;44.768;17.206;2022-12-08T04:46:48;47.83;;;24.42;;
36351;SDS011;22382;44.768;17.206;2022-12-08T04:49:15;41.47;;;22.02;;
36351;SDS011;22382;44.768;17.206;2022-12-08T04:51:42;41.88;;;21.60;;
36351;SDS011;22382;44.768;17.206;2022-12-08T04:54:09;41.60;;;21.60;;
36351;SDS011;22382;44.768;17.206;2022-12-08T04:56:36;36.05;;;20.42;;
36351;SDS011;22382;44.768;17.206;2022-12-08T04:59:03;36.72;;;20.00;;
36351;SDS011;22382;44.768;17.206;2022-12-08T05:01:30;36.05;;;20.15;;
36351;SDS011;22382;44.768;17.206;2022-12-08T05:03:57;35.20;;;20.77;;
36351;SDS011;22382;44.768;17.206;2022-12-08T05:06:24;37.67;;;20.23;;
36351;SDS011;22382;44.768;17.206;2022-12-08T05:08:51;36.88;;;20.83;;
36351;SDS011;22382;44.768;17.206;2022-12-08T05:11:18;33.92;;;20.63;;
36351;SDS011;22382;44.768;17.206;2022-12-08T05:13:45;40.10;;;22.00;;
36351;SDS011;22382;44.768;17.206;2022-12-08T05:16:13;41.17;;;22.17;;
36351;SDS011;22382;44.768;17.206;2022-12-08T05:18:41;40.38;;;22.90;;
36351;SDS011;22382;44.768;17.206;2022-12-08T05:21:08;39.65;;;22.00;;
36351;SDS011;22382;44.768;17.206;2022-12-08T05:23:36;39.00;;;21.65;;
36351;SDS011;22382;44.768;17.206;2022-12-08T05:26:03;34.53;;;20.98;;
36351;SDS011;22382;44.768;17.206;2022-12-08T05:28:30;37.50;;;21.17;;
36351;SDS011;22382;44.768;17.206;2022-12-08T05:31:07;33.75;;;19.23;;
36351;SDS011;22382;44.768;17.206;2022-12-08T05:33:34;34.50;;;20.20;;
36351;SDS011;22382;44.768;17.206;2022-12-08T05:36:01;37.92;;;22.23;;
36351;SDS011;22382;44.768;17.206;2022-12-08T05:38:28;37.25;;;21.35;;
36351;SDS011;22382;44.768;17.206;2022-12-08T05:40:55;34.28;;;20.63;;
36351;SDS011;22382;44.768;17.206;2022-12-08T05:43:22;34.67;;;20.20;;
36351;SDS011;22382;44.768;17.206;2022-12-08T05:45:49;30.45;;;18.52;;
36351;SDS011;22382;44.768;17.206;2022-12-08T05:48:16;37.63;;;22.08;;
36351;SDS011;22382;44.768;17.206;2022-12-08T05:50:46;37.33;;;21.48;;
36351;SDS011;22382;44.768;17.206;2022-12-08T05:53:14;44.97;;;24.15;;
36351;SDS011;22382;44.768;17.206;2022-12-08T05:55:42;47.78;;;26.70;;
36351;SDS011;22382;44.768;17.206;2022-12-08T05:58:11;45.08;;;25.13;;
36351;SDS011;22382;44.768;17.206;2022-12-08T06:00:40;44.45;;;25.75;;
36351;SDS011;22382;44.768;17.206;2022-12-08T06:03:09;38.10;;;23.42;;
36351;SDS011;22382;44.768;17.206;2022-12-08T06:05:37;43.38;;;24.88;;
36351;SDS011;22382;44.768;17.206;2022-12-08T06:08:05;42.33;;;26.40;;
36351;SDS011;22382;44.768;17.206;2022-12-08T06:10:33;46.72;;;28.08;;
36351;SDS011;22382;44.768;17.206;2022-12-08T06:13:00;39.85;;;23.65;;
36351;SDS011;22382;44.768;17.206;2022-12-08T06:15:27;47.47;;;26.42;;
36351;SDS011;22382;44.768;17.206;2022-12-08T06:17:54;37.50;;;23.80;;
36351;SDS011;22382;44.768;17.206;2022-12-08T06:20:22;40.53;;;23.83;;
36351;SDS011;22382;44.768;17.206;2022-12-08T06:22:49;37.22;;;23.38;;
36351;SDS011;22382;44.768;17.206;2022-12-08T06:25:15;39.05;;;22.88;;
36351;SDS011;22382;44.768;17.206;2022-12-08T06:27:43;39.03;;;22.33;;
36351;SDS011;22382;44.768;17.206;2022-12-08T06:30:10;45.30;;;24.50;;
36351;SDS011;22382;44.768;17.206;2022-12-08T06:32:37;40.90;;;23.23;;
36351;SDS011;22382;44.768;17.206;2022-12-08T06:35:05;44.15;;;24.92;;
36351;SDS011;22382;44.768;17.206;2022-12-08T06:37:32;37.40;;;22.70;;
36351;SDS011;22382;44.768;17.206;2022-12-08T06:39:59;44.88;;;24.05;;
36351;SDS011;22382;44.768;17.206;2022-12-08T06:42:26;39.45;;;24.27;;
36351;SDS011;22382;44.768;17.206;2022-12-08T06:45:15;44.22;;;25.67;;
36351;SDS011;22382;44.768;17.206;2022-12-08T06:47:43;56.58;;;31.38;;
36351;SDS011;22382;44.768;17.206;2022-12-08T06:50:10;49.30;;;27.42;;
36351;SDS011;22382;44.768;17.206;2022-12-08T06:52:38;46.00;;;25.05;;
36351;SDS011;22382;44.768;17.206;2022-12-08T06:55:21;44.20;;;24.57;;
36351;SDS011;22382;44.768;17.206;2022-12-08T06:58:08;44.28;;;23.17;;
36351;SDS011;22382;44.768;17.206;2022-12-08T07:00:35;45.25;;;24.08;;
36351;SDS011;22382;44.768;17.206;2022-12-08T07:03:02;47.15;;;24.75;;
36351;SDS011;22382;44.768;17.206;2022-12-08T07:05:29;47.63;;;26.27;;
36351;SDS011;22382;44.768;17.206;2022-12-08T07:07:56;49.03;;;26.92;;
36351;SDS011;22382;44.768;17.206;2022-12-08T07:10:23;47.03;;;24.98;;
36351;SDS011;22382;44.768;17.206;2022-12-08T07:12:49;48.88;;;27.33;;
36351;SDS011;22382;44.768;17.206;2022-12-08T07:15:17;51.13;;;27.50;;
36351;SDS011;22382;44.768;17.206;2022-12-08T07:17:46;56.30;;;28.98;;
36351;SDS011;22382;44.768;17.206;2022-12-08T07:20:13;53.17;;;29.35;;
36351;SDS011;22382;44.768;17.206;2022-12-08T07:22:41;53.38;;;27.75;;
36351;SDS011;22382;44.768;17.206;2022-12-08T07:25:17;52.40;;;28.65;;
36351;SDS011;22382;44.768;17.206;2022-12-08T07:27:45;53.97;;;28.85;;
36351;SDS011;22382;44.768;17.206;2022-12-08T07:30:12;53.72;;;29.30;;
36351;SDS011;22382;44.768;17.206;2022-12-08T07:32:40;52.03;;;28.02;;
36351;SDS011;22382;44.768;17.206;2022-12-08T07:35:09;53.63;;;28.10;;
36351;SDS011;22382;44.768;17.206;2022-12-08T07:37:36;56.55;;;28.38;;
36351;SDS011;22382;44.768;17.206;2022-12-08T07:40:04;54.70;;;27.90;;
36351;SDS011;22382;44.768;17.206;2022-12-08T07:42:33;56.22;;;28.42;;
36351;SDS011;22382;44.768;17.206;2022-12-08T07:45:00;52.45;;;27.95;;
36351;SDS011;22382;44.768;17.206;2022-12-08T07:47:27;45.25;;;25.73;;
36351;SDS011;22382;44.768;17.206;2022-12-08T07:49:54;45.80;;;22.85;;
36351;SDS011;22382;44.768;17.206;2022-12-08T07:52:21;48.47;;;24.55;;
36351;SDS011;22382;44.768;17.206;2022-12-08T07:54:48;50.25;;;25.98;;
36351;SDS011;22382;44.768;17.206;2022-12-08T07:57:15;49.85;;;26.27;;
36351;SDS011;22382;44.768;17.206;2022-12-08T07:59:42;48.20;;;26.63;;
36351;SDS011;22382;44.768;17.206;2022-12-08T08:02:16;47.55;;;26.05;;
36351;SDS011;22382;44.768;17.206;2022-12-08T08:04:51;41.50;;;23.27;;
36351;SDS011;22382;44.768;17.206;2022-12-08T08:07:18;44.33;;;24.52;;
36351;SDS011;22382;44.768;17.206;2022-12-08T08:09:45;43.95;;;23.83;;
36351;SDS011;22382;44.768;17.206;2022-12-08T08:12:12;44.75;;;23.48;;
36351;SDS011;22382;44.768;17.206;2022-12-08T08:14:58;46.15;;;23.15;;
36351;SDS011;22382;44.768;17.206;2022-12-08T08:17:26;43.97;;;24.73;;
36351;SDS011;22382;44.768;17.206;2022-12-08T08:19:54;41.15;;;23.83;;
36351;SDS011;22382;44.768;17.206;2022-12-08T08:22:21;46.25;;;24.40;;
36351;SDS011;22382;44.768;17.206;2022-12-08T08:24:48;40.08;;;23.35;;
36351;SDS011;22382;44.768;17.206;2022-12-08T08:27:15;40.72;;;22.00;;
36351;SDS011;22382;44.768;17.206;2022-12-08T08:29:42;38.20;;;21.70;;
36351;SDS011;22382;44.768;17.206;2022-12-08T08:32:09;41.30;;;21.65;;
36351;SDS011;22382;44.768;17.206;2022-12-08T08:34:36;45.25;;;24.02;;
36351;SDS011;22382;44.768;17.206;2022-12-08T08:37:03;39.47;;;23.70;;
36351;SDS011;22382;44.768;17.206;2022-12-08T08:39:30;37.40;;;22.35;;
36351;SDS011;22382;44.768;17.206;2022-12-08T08:41:57;48.28;;;25.48;;
36351;SDS011;22382;44.768;17.206;2022-12-08T08:44:24;49.22;;;25.83;;
36351;SDS011;22382;44.768;17.206;2022-12-08T08:46:51;57.20;;;28.90;;
36351;SDS011;22382;44.768;17.206;2022-12-08T08:49:18;64.22;;;33.08;;
36351;SDS011;22382;44.768;17.206;2022-12-08T08:51:45;56.20;;;27.70;;
36351;SDS011;22382;44.768;17.206;2022-12-08T08:54:12;49.97;;;26.55;;
36351;SDS011;22382;44.768;17.206;2022-12-08T08:56:39;52.05;;;27.25;;
36351;SDS011;22382;44.768;17.206;2022-12-08T08:59:07;51.65;;;27.98;;
36351;SDS011;22382;44.768;17.206;2022-12-08T09:01:35;57.47;;;31.05;;
36351;SDS011;22382;44.768;17.206;2022-12-08T09:04:02;55.70;;;29.10;;
36351;SDS011;22382;44.768;17.206;2022-12-08T09:06:30;56.88;;;29.05;;
36351;SDS011;22382;44.768;17.206;2022-12-08T09:08:57;57.00;;;29.80;;
36351;SDS011;22382;44.768;17.206;2022-12-08T09:11:24;55.58;;;28.88;;
36351;SDS011;22382;44.768;17.206;2022-12-08T09:13:51;56.10;;;29.48;;
36351;SDS011;22382;44.768;17.206;2022-12-08T09:16:19;52.17;;;28.60;;
36351;SDS011;22382;44.768;17.206;2022-12-08T09:18:46;52.17;;;27.42;;
36351;SDS011;22382;44.768;17.206;2022-12-08T09:21:16;56.50;;;29.55;;
36351;SDS011;22382;44.768;17.206;2022-12-08T09:23:55;58.28;;;29.67;;
36351;SDS011;22382;44.768;17.206;2022-12-08T09:26:23;57.35;;;27.33;;
36351;SDS011;22382;44.768;17.206;2022-12-08T09:28:52;56.33;;;27.60;;
36351;SDS011;22382;44.768;17.206;2022-12-08T09:31:21;59.50;;;29.70;;
36351;SDS011;22382;44.768;17.206;2022-12-08T09:33:49;57.58;;;28.98;;
36351;SDS011;22382;44.768;17.206;2022-12-08T09:36:17;60.00;;;29.52;;
36351;SDS011;22382;44.768;17.206;2022-12-08T09:38:45;56.55;;;28.60;;
36351;SDS011;22382;44.768;17.206;2022-12-08T09:41:17;58.50;;;28.90;;
36351;SDS011;22382;44.768;17.206;2022-12-08T09:47:27;58.63;;;29.87;;
36351;SDS011;22382;44.768;17.206;2022-12-08T09:53:05;66.47;;;31.77;;
36351;SDS011;22382;44.768;17.206;2022-12-08T09:55:46;63.70;;;32.45;;
36351;SDS011;22382;44.768;17.206;2022-12-08T10:00:57;63.63;;;30.80;;
36351;SDS011;22382;44.768;17.206;2022-12-08T10:03:25;64.15;;;31.55;;
36351;SDS011;22382;44.768;17.206;2022-12-08T10:06:40;58.40;;;27.77;;
36351;SDS011;22382;44.768;17.206;2022-12-08T10:17:10;64.50;;;30.83;;
36351;SDS011;22382;44.768;17.206;2022-12-08T10:19:40;63.42;;;30.50;;
36351;SDS011;22382;44.768;17.206;2022-12-08T10:22:14;56.70;;;28.42;;
36351;SDS011;22382;44.768;17.206;2022-12-08T10:24:52;64.07;;;29.75;;
36351;SDS011;22382;44.768;17.206;2022-12-08T10:27:24;67.20;;;32.42;;
36351;SDS011;22382;44.768;17.206;2022-12-08T10:29:52;64.05;;;30.73;;
36351;SDS011;22382;44.768;17.206;2022-12-08T10:32:20;57.85;;;29.30;;
36351;SDS011;22382;44.768;17.206;2022-12-08T10:37:37;69.88;;;34.75;;
36351;SDS011;22382;44.768;17.206;2022-12-08T10:40:12;67.50;;;34.30;;
36351;SDS011;22382;44.768;17.206;2022-12-08T10:42:44;71.63;;;35.90;;
36351;SDS011;22382;44.768;17.206;2022-12-08T10:45:23;68.30;;;36.65;;
36351;SDS011;22382;44.768;17.206;2022-12-08T10:48:01;66.40;;;33.75;;
36351;SDS011;22382;44.768;17.206;2022-12-08T10:50:54;75.32;;;37.20;;
36351;SDS011;22382;44.768;17.206;2022-12-08T10:53:27;69.57;;;35.13;;
36351;SDS011;22382;44.768;17.206;2022-12-08T11:01:08;65.18;;;32.42;;
36351;SDS011;22382;44.768;17.206;2022-12-08T11:03:54;65.03;;;33.63;;
36351;SDS011;22382;44.768;17.206;2022-12-08T11:06:30;58.35;;;32.30;;
36351;SDS011;22382;44.768;17.206;2022-12-08T11:09:04;60.25;;;31.88;;
36351;SDS011;22382;44.768;17.206;2022-12-08T11:11:51;53.83;;;29.15;;
36351;SDS011;22382;44.768;17.206;2022-12-08T11:14:26;53.40;;;28.48;;
36351;SDS011;22382;44.768;17.206;2022-12-08T11:16:55;45.97;;;25.80;;
36351;SDS011;22382;44.768;17.206;2022-12-08T11:19:31;48.60;;;28.05;;
36351;SDS011;22382;44.768;17.206;2022-12-08T11:24:57;47.05;;;26.65;;
36351;SDS011;22382;44.768;17.206;2022-12-08T11:27:34;44.08;;;24.83;;
36351;SDS011;22382;44.768;17.206;2022-12-08T11:30:05;41.97;;;23.38;;
36351;SDS011;22382;44.768;17.206;2022-12-08T11:32:54;38.97;;;23.83;;
36351;SDS011;22382;44.768;17.206;2022-12-08T11:35:31;42.83;;;24.00;;
36351;SDS011;22382;44.768;17.206;2022-12-08T11:38:09;41.60;;;24.83;;
36351;SDS011;22382;44.768;17.206;2022-12-08T11:40:47;43.05;;;24.27;;
36351;SDS011;22382;44.768;17.206;2022-12-08T11:43:24;40.33;;;23.38;;
36351;SDS011;22382;44.768;17.206;2022-12-08T11:46:01;51.15;;;27.45;;
36351;SDS011;22382;44.768;17.206;2022-12-08T11:48:36;58.22;;;32.28;;
36351;SDS011;22382;44.768;17.206;2022-12-08T11:51:32;50.50;;;29.20;;
36351;SDS011;22382;44.768;17.206;2022-12-08T11:56:47;48.55;;;27.33;;
36351;SDS011;22382;44.768;17.206;2022-12-08T11:59:27;48.92;;;28.10;;
36351;SDS011;22382;44.768;17.206;2022-12-08T12:01:58;51.72;;;31.35;;
36351;SDS011;22382;44.768;17.206;2022-12-08T12:10:11;55.28;;;31.85;;
36351;SDS011;22382;44.768;17.206;2022-12-08T12:18:12;50.30;;;28.27;;
36351;SDS011;22382;44.768;17.206;2022-12-08T12:20:48;51.30;;;28.67;;
36351;SDS011;22382;44.768;17.206;2022-12-08T12:24:03;49.13;;;28.92;;
36351;SDS011;22382;44.768;17.206;2022-12-08T12:26:24;55.90;;;30.13;;
36351;SDS011;22382;44.768;17.206;2022-12-08T12:31:37;50.35;;;28.33;;
36351;SDS011;22382;44.768;17.206;2022-12-08T12:34:10;53.45;;;30.33;;
36351;SDS011;22382;44.768;17.206;2022-12-08T12:36:48;48.83;;;28.50;;
36351;SDS011;22382;44.768;17.206;2022-12-08T12:39:19;44.08;;;26.75;;
36351;SDS011;22382;44.768;17.206;2022-12-08T12:41:54;46.08;;;26.50;;
36351;SDS011;22382;44.768;17.206;2022-12-08T12:46:55;45.40;;;25.92;;
36351;SDS011;22382;44.768;17.206;2022-12-08T12:57:35;43.05;;;26.55;;
36351;SDS011;22382;44.768;17.206;2022-12-08T13:02:50;42.38;;;25.05;;
36351;SDS011;22382;44.768;17.206;2022-12-08T13:07:56;45.10;;;26.33;;
36351;SDS011;22382;44.768;17.206;2022-12-08T13:10:32;44.67;;;26.50;;
36351;SDS011;22382;44.768;17.206;2022-12-08T13:15:38;51.22;;;30.05;;
36351;SDS011;22382;44.768;17.206;2022-12-08T13:18:56;44.95;;;26.98;;
36351;SDS011;22382;44.768;17.206;2022-12-08T13:31:48;50.30;;;29.08;;
36351;SDS011;22382;44.768;17.206;2022-12-08T13:40:17;37.53;;;22.60;;
36351;SDS011;22382;44.768;17.206;2022-12-08T13:45:45;39.45;;;23.15;;
36351;SDS011;22382;44.768;17.206;2022-12-08T13:48:44;47.33;;;25.50;;
36351;SDS011;22382;44.768;17.206;2022-12-08T13:51:39;38.42;;;23.50;;
36351;SDS011;22382;44.768;17.206;2022-12-08T13:54:38;39.47;;;25.02;;
36351;SDS011;22382;44.768;17.206;2022-12-08T13:57:29;36.40;;;22.67;;
36351;SDS011;22382;44.768;17.206;2022-12-08T13:59:59;46.45;;;26.98;;
36351;SDS011;22382;44.768;17.206;2022-12-08T14:02:34;47.88;;;30.40;;
36351;SDS011;22382;44.768;17.206;2022-12-08T14:05:08;48.25;;;30.60;;
36351;SDS011;22382;44.768;17.206;2022-12-08T14:07:47;55.63;;;33.03;;
36351;SDS011;22382;44.768;17.206;2022-12-08T14:10:19;58.10;;;35.75;;
36351;SDS011;22382;44.768;17.206;2022-12-08T14:12:55;56.88;;;35.78;;
36351;SDS011;22382;44.768;17.206;2022-12-08T14:15:26;50.92;;;32.28;;
36351;SDS011;22382;44.768;17.206;2022-12-08T14:18:02;54.67;;;34.60;;
36351;SDS011;22382;44.768;17.206;2022-12-08T14:20:30;58.25;;;37.08;;
36351;SDS011;22382;44.768;17.206;2022-12-08T14:23:18;62.22;;;36.90;;
36351;SDS011;22382;44.768;17.206;2022-12-08T14:25:45;55.13;;;34.92;;
36351;SDS011;22382;44.768;17.206;2022-12-08T14:28:13;56.42;;;35.55;;
36351;SDS011;22382;44.768;17.206;2022-12-08T14:30:40;59.65;;;35.45;;
36351;SDS011;22382;44.768;17.206;2022-12-08T14:33:11;53.83;;;34.40;;
36351;SDS011;22382;44.768;17.206;2022-12-08T14:35:42;54.85;;;35.20;;
36351;SDS011;22382;44.768;17.206;2022-12-08T14:38:17;53.25;;;33.63;;
36351;SDS011;22382;44.768;17.206;2022-12-08T14:41:05;60.15;;;36.65;;
36351;SDS011;22382;44.768;17.206;2022-12-08T14:43:34;59.80;;;37.85;;
36351;SDS011;22382;44.768;17.206;2022-12-08T14:46:03;62.80;;;38.28;;
36351;SDS011;22382;44.768;17.206;2022-12-08T14:48:44;61.90;;;36.40;;
36351;SDS011;22382;44.768;17.206;2022-12-08T14:59:46;67.07;;;38.92;;
36351;SDS011;22382;44.768;17.206;2022-12-08T15:04:41;69.85;;;39.17;;
36351;SDS011;22382;44.768;17.206;2022-12-08T15:07:18;56.80;;;34.72;;
36351;SDS011;22382;44.768;17.206;2022-12-08T15:10:05;57.28;;;37.08;;
36351;SDS011;22382;44.768;17.206;2022-12-08T15:12:33;61.63;;;37.05;;
36351;SDS011;22382;44.768;17.206;2022-12-08T15:15:00;67.00;;;38.72;;
36351;SDS011;22382;44.768;17.206;2022-12-08T15:25:47;68.75;;;40.97;;
36351;SDS011;22382;44.768;17.206;2022-12-08T15:28:18;66.20;;;39.75;;
36351;SDS011;22382;44.768;17.206;2022-12-08T15:30:54;78.18;;;44.65;;
36351;SDS011;22382;44.768;17.206;2022-12-08T15:33:22;68.03;;;42.33;;
36351;SDS011;22382;44.768;17.206;2022-12-08T15:35:50;76.97;;;44.45;;
36351;SDS011;22382;44.768;17.206;2022-12-08T15:40:46;73.43;;;43.85;;
36351;SDS011;22382;44.768;17.206;2022-12-08T15:43:13;76.60;;;44.63;;
36351;SDS011;22382;44.768;17.206;2022-12-08T15:45:40;78.82;;;45.85;;
36351;SDS011;22382;44.768;17.206;2022-12-08T15:48:24;81.05;;;45.88;;
36351;SDS011;22382;44.768;17.206;2022-12-08T15:50:52;77.40;;;45.70;;
36351;SDS011;22382;44.768;17.206;2022-12-08T15:53:20;76.43;;;44.55;;
36351;SDS011;22382;44.768;17.206;2022-12-08T15:55:47;77.10;;;43.25;;
36351;SDS011;22382;44.768;17.206;2022-12-08T15:58:35;80.88;;;45.17;;
36351;SDS011;22382;44.768;17.206;2022-12-08T16:01:21;76.20;;;45.20;;
36351;SDS011;22382;44.768;17.206;2022-12-08T16:03:49;76.15;;;44.38;;
36351;SDS011;22382;44.768;17.206;2022-12-08T16:06:36;78.63;;;42.28;;
36351;SDS011;22382;44.768;17.206;2022-12-08T16:11:51;74.90;;;41.92;;
36351;SDS011;22382;44.768;17.206;2022-12-08T16:14:37;71.53;;;42.28;;
36351;SDS011;22382;44.768;17.206;2022-12-08T16:17:25;69.38;;;40.80;;
36351;SDS011;22382;44.768;17.206;2022-12-08T16:19:53;70.30;;;40.65;;
36351;SDS011;22382;44.768;17.206;2022-12-08T16:22:21;70.78;;;42.15;;
36351;SDS011;22382;44.768;17.206;2022-12-08T16:25:10;70.47;;;41.40;;
36351;SDS011;22382;44.768;17.206;2022-12-08T16:27:47;75.72;;;44.17;;
36351;SDS011;22382;44.768;17.206;2022-12-08T16:30:36;71.95;;;41.53;;
36351;SDS011;22382;44.768;17.206;2022-12-08T16:33:03;71.30;;;40.42;;
36351;SDS011;22382;44.768;17.206;2022-12-08T16:35:30;72.65;;;40.50;;
36351;SDS011;22382;44.768;17.206;2022-12-08T16:37:57;71.63;;;40.75;;
36351;SDS011;22382;44.768;17.206;2022-12-08T16:40:24;71.93;;;39.88;;
36351;SDS011;22382;44.768;17.206;2022-12-08T16:42:51;65.88;;;38.42;;
36351;SDS011;22382;44.768;17.206;2022-12-08T16:45:22;67.20;;;39.25;;
36351;SDS011;22382;44.768;17.206;2022-12-08T16:47:57;76.28;;;42.20;;
36351;SDS011;22382;44.768;17.206;2022-12-08T16:50:29;69.18;;;37.88;;
36351;SDS011;22382;44.768;17.206;2022-12-08T16:52:58;70.30;;;38.20;;
36351;SDS011;22382;44.768;17.206;2022-12-08T16:55:31;73.90;;;39.55;;
36351;SDS011;22382;44.768;17.206;2022-12-08T16:57:58;66.63;;;39.13;;
36351;SDS011;22382;44.768;17.206;2022-12-08T17:00:27;72.90;;;38.78;;
36351;SDS011;22382;44.768;17.206;2022-12-08T17:02:58;69.97;;;38.47;;
36351;SDS011;22382;44.768;17.206;2022-12-08T17:05:26;75.22;;;43.00;;